Time;durP1;ratioP1;P1;durP2;ratioP2;P2;SDS_P1;SDS_P2;PMS_P1;PMS_P2;Temp;Humidity;BMP_temperature;BMP_pressure;BME280_temperature;BME280_humidity;BME280_pressure;Samples;Min_cycle;Max_cycle;Signal;HPM_P1;HPM_P2
2022/12/27 00:00:22;;;;;;;;;;;;;;;;;;5056429;28;20290;-53
2022/12/27 00:02:50;;;;;;;;;;;;;;;;;;5058516;28;20003;-49
2022/12/27 00:05:17;;;;;;;;;;;;;;;;;;5071084;28;20340;-49
2022/12/27 00:07:43;;;;;;;;;;;;;;;;;;5078290;28;20091;-51
2022/12/27 00:10:11;;;;;;;;;;;;;;;;;;5078202;28;19932;-51
2022/12/27 00:12:37;;;;;;;;;;;;;;;;;;5078211;28;19933;-49
2022/12/27 00:15:04;;;;;;;;;;;;;;;;;;5078769;28;20007;-49
2022/12/27 00:17:31;;;;;;;;;;;;;;;;;;5078558;28;19932;-48
2022/12/27 00:19:59;;;;;;;;;;;;;;;;;;5078635;28;19924;-49
2022/12/27 00:22:25;;;;;;;;;;;;;;;;;;5078486;28;19935;-49
2022/12/27 00:24:53;;;;;;;;;;;;;;;;;;5078306;28;20166;-49
2022/12/27 00:27:19;;;;;;;;;;;;;;;;;;5078699;28;19929;-50
2022/12/27 00:29:46;;;;;;;;;;;;;;;;;;5078465;28;19928;-50
2022/12/27 00:32:12;;;;;;;;;;;;;;;;;;5078253;28;19928;-49
2022/12/27 00:34:39;;;;;;;;;;;;;;;;;;5078206;28;20038;-50
2022/12/27 00:37:07;;;;;;;;;;;;;;;;;;5078102;28;19928;-49
2022/12/27 00:39:33;;;;;;;;;;;;;;;;;;5078271;28;19924;-49
2022/12/27 00:42:00;;;;;;;;;;;;;;;;;;5078334;28;19928;-49
2022/12/27 00:44:26;;;;;;;;;;;;;;;;;;5078176;28;19932;-49
2022/12/27 00:46:53;;;;;;;;;;;;;;;;;;5077502;28;19931;-48
2022/12/27 00:49:20;;;;;;;;;;;;;;;;;;5078041;28;19932;-51
2022/12/27 00:51:46;;;;;;;;;;;;;;;;;;5077360;28;19925;-49
2022/12/27 00:54:14;;;;;;;;;;;;;;;;;;5073104;22;20340;-49
2022/12/27 00:56:41;;;;;;;;;;;;;;;;;;5055051;28;20297;-48
2022/12/27 00:59:07;;;;;;;;;;;;;;;;;;5055119;28;19929;-48
2022/12/27 01:01:34;;;;;;;;;;;;;;;;;;5055055;28;20015;-49
2022/12/27 01:04:01;;;;;;;;;;;;;;;;;;5057820;28;19948;-51
2022/12/27 01:06:30;;;;;;;;;;;;;;;;;;5075105;28;19971;-48
2022/12/27 01:08:57;;;;;;;;;;;;;;;;;;5075360;28;19924;-49
2022/12/27 01:11:27;;;;;;;;;;;;;;;;;;5074471;28;19925;-50
2022/12/27 01:13:54;;;;;;;;;;;;;;;;;;5074541;28;19935;-48
2022/12/27 01:16:21;;;;;;;;;;;;;;;;;;5074994;28;19925;-48
2022/12/27 01:18:48;;;;;;;;;;;;;;;;;;5074681;28;20389;-49
2022/12/27 01:21:16;;;;;;;;;;;;;;;;;;5074627;28;19936;-48
2022/12/27 01:23:42;;;;;;;;;;;;;;;;;;5074625;28;19933;-49
2022/12/27 01:26:13;;;;;;;;;;;;;;;;;;5074704;28;20446;-49
2022/12/27 01:28:41;;;;;;;;;;;;;;;;;;5074611;28;19978;-49
2022/12/27 01:31:08;;;;;;;;;;;;;;;;;;5074730;28;20413;-48
2022/12/27 01:33:34;;;;;;;;;;;;;;;;;;5074323;28;19929;-48
2022/12/27 01:36:07;;;;;;;;;;;;;;;;;;5074491;28;19986;-50
2022/12/27 01:38:34;;;;;;;;;;;;;;;;;;5074589;28;19978;-49
2022/12/27 01:42:50;;;;;;;;;;;;;;;;;;5074324;28;19925;-50
2022/12/27 01:43:47;;;;;;;;;;;;;;;;;;5074033;28;19956;-51
2022/12/27 01:46:14;;;;;;;;;;;;;;;;;;5074772;28;19924;-49
2022/12/27 01:48:41;;;;;;;;;;;;;;;;;;5074181;28;19947;-48
2022/12/27 01:51:08;;;;;;;;;;;;;;;;;;5074030;28;19932;-49
2022/12/27 01:53:36;;;;;;;;;;;;;;;;;;5073914;28;19924;-51
2022/12/27 01:56:04;;;;;;;;;;;;;;;;;;5074123;28;19974;-50
2022/12/27 01:58:32;;;;;;;;;;;;;;;;;;5073935;28;19928;-48
2022/12/27 02:01:00;;;;;;;;;;;;;;;;;;5073864;28;19932;-50
2022/12/27 02:03:28;;;;;;;;;;;;;;;;;;5073733;28;20273;-50
2022/12/27 02:05:56;;;;;;;;;;;;;;;;;;5073946;28;19924;-49
2022/12/27 02:08:37;;;;;;;;;;;;;;;;;;5073814;28;19950;-48
2022/12/27 02:11:05;;;;;;;;;;;;;;;;;;5069974;28;20001;-49
2022/12/27 02:13:32;;;;;;;;;;;;;;;;;;5073662;28;19928;-48
2022/12/27 02:16:01;;;;;;;;;;;;;;;;;;5073676;28;20343;-49
2022/12/27 02:18:27;;;;;;;;;;;;;;;;;;5073792;28;19928;-49
2022/12/27 02:21:05;;;;;;;;;;;;;;;;;;5073721;28;19928;-49
2022/12/27 02:26:37;;;;;;;;;;;;;;;;;;5073644;28;19932;-49
2022/12/27 02:29:18;;;;;;;;;;;;;;;;;;5073472;28;20381;-49
2022/12/27 02:31:49;;;;;;;;;;;;;;;;;;5052330;28;19929;-49
2022/12/27 02:34:18;;;;;;;;;;;;;;;;;;5073042;28;20054;-49
2022/12/27 02:36:45;;;;;;;;;;;;;;;;;;5073465;28;19925;-49
2022/12/27 02:39:13;;;;;;;;;;;;;;;;;;5073297;28;19925;-49
2022/12/27 02:53:07;;;;;;;;;;;;;;;;;;5072431;28;20016;-49
2022/12/27 02:58:44;;;;;;;;;;;;;;;;;;5072593;28;20063;-51
2022/12/27 03:04:08;;;;;;;;;;;;;;;;;;5070221;28;19931;-49
2022/12/27 03:06:56;;;;;;;;;;;;;;;;;;5052811;28;19995;-50
2022/12/27 03:18:03;;;;;;;;;;;;;;;;;;5052441;28;19936;-49
2022/12/27 03:26:02;;;;;;;;;;;;;;;;;;5052361;28;20067;-50
2022/12/27 03:34:30;;;;;;;;;;;;;;;;;;5052121;28;19931;-50
2022/12/27 03:39:40;;;;;;;;;;;;;;;;;;5052274;28;19932;-50
2022/12/27 03:44:52;;;;;;;;;;;;;;;;;;5052020;28;19995;-51
2022/12/27 03:47:21;;;;;;;;;;;;;;;;;;5052068;28;19987;-53
2022/12/27 03:49:49;;;;;;;;;;;;;;;;;;5052104;28;19925;-50
2022/12/27 03:52:19;;;;;;;;;;;;;;;;;;5052051;28;19986;-50
2022/12/27 03:54:48;;;;;;;;;;;;;;;;;;5051809;28;19971;-50
2022/12/27 03:57:15;;;;;;;;;;;;;;;;;;5051960;28;19933;-49
2022/12/27 03:59:42;;;;;;;;;;;;;;;;;;5052021;28;20389;-51
2022/12/27 04:02:08;;;;;;;;;;;;;;;;;;5051944;28;19928;-49
2022/12/27 04:04:35;;;;;;;;;;;;;;;;;;5058851;28;19932;-49
2022/12/27 04:07:02;;;;;;;;;;;;;;;;;;5071963;28;19977;-52
2022/12/27 04:36:52;;;;;;;;;;;;;;;;;;5071721;28;19931;-51
2022/12/27 04:39:18;;;;;;;;;;;;;;;;;;5071414;28;19978;-49
2022/12/27 04:55:30;;;;;;;;;;;;;;;;;;5048949;28;19932;-50
2022/12/27 04:57:58;;;;;;;;;;;;;;;;;;5074999;28;20001;-49
2022/12/27 05:03:12;;;;;;;;;;;;;;;;;;5074962;28;19931;-52
2022/12/27 05:05:39;;;;;;;;;;;;;;;;;;5058782;28;19929;-50
2022/12/27 05:16:19;;;;;;;;;;;;;;;;;;5054736;28;19932;-50
2022/12/27 05:18:46;;;;;;;;;;;;;;;;;;5054483;28;19951;-50
2022/12/27 05:21:12;;;;;;;;;;;;;;;;;;5054478;28;20424;-50
2022/12/27 05:26:38;;;;;;;;;;;;;;;;;;4993119;28;19925;-50
2022/12/27 05:29:06;;;;;;;;;;;;;;;;;;4992991;28;20381;-49
2022/12/27 05:31:33;;;;;;;;;;;;;;;;;;5019931;28;19924;-51
2022/12/27 05:33:59;;;;;;;;;;;;;;;;;;5054147;28;19925;-51
2022/12/27 05:36:26;;;;;;;;;;;;;;;;;;5054219;28;20388;-50
2022/12/27 05:38:53;;;;;;;;;;;;;;;;;;5054255;28;19929;-50
2022/12/27 05:41:20;;;;;;;;;;;;;;;;;;5054076;28;19940;-50
2022/12/27 05:43:46;;;;;;;;;;;;;;;;;;5053986;28;19928;-49
2022/12/27 05:46:15;;;;;;;;;;;;;;;;;;5053949;28;19994;-51
2022/12/27 05:48:42;;;;;;;;;;;;;;;;;;5054085;28;19924;-53
2022/12/27 05:51:09;;;;;;;;;;;;;;;;;;5053936;28;19978;-50
2022/12/27 05:53:36;;;;;;;;;;;;;;;;;;5053544;28;19925;-49
2022/12/27 05:56:03;;;;;;;;;;;;;;;;;;5053817;28;20460;-51
2022/12/27 05:58:29;;;;;;;;;;;;;;;;;;5053779;28;19987;-50
2022/12/27 06:00:56;;;;;;;;;;;;;;;;;;5053862;28;20354;-50
2022/12/27 06:03:24;;;;;;;;;;;;;;;;;;5053499;28;19971;-50
2022/12/27 06:05:51;;;;;;;;;;;;;;;;;;5071340;28;20319;-50
2022/12/27 06:08:17;;;;;;;;;;;;;;;;;;5073571;28;20383;-50
2022/12/27 06:10:44;;;;;;;;;;;;;;;;;;5073380;28;20336;-49
2022/12/27 06:13:10;;;;;;;;;;;;;;;;;;5073494;28;19924;-50
2022/12/27 06:15:37;;;;;;;;;;;;;;;;;;5073465;28;19924;-50
2022/12/27 06:18:05;;;;;;;;;;;;;;;;;;5073145;28;19978;-52
2022/12/27 06:20:33;;;;;;;;;;;;;;;;;;5073463;28;19979;-50
2022/12/27 06:23:00;;;;;;;;;;;;;;;;;;5073097;28;20447;-52
2022/12/27 06:25:26;;;;;;;;;;;;;;;;;;5073041;28;19925;-49
2022/12/27 06:27:53;;;;;;;;;;;;;;;;;;5073315;28;19929;-50
2022/12/27 06:30:19;;;;;;;;;;;;;;;;;;5073124;28;19924;-50
2022/12/27 06:32:46;;;;;;;;;;;;;;;;;;5073065;28;19990;-52
2022/12/27 06:35:12;;;;;;;;;;;;;;;;;;5073461;28;20438;-50
2022/12/27 06:37:40;;;;;;;;;;;;;;;;;;5073324;28;19931;-51
2022/12/27 06:40:07;;;;;;;;;;;;;;;;;;5072810;28;19924;-48
2022/12/27 06:42:34;;;;;;;;;;;;;;;;;;5073032;28;19928;-49
2022/12/27 06:45:00;;;;;;;;;;;;;;;;;;5072833;28;19931;-50
2022/12/27 06:47:27;;;;;;;;;;;;;;;;;;5072822;28;20438;-50
2022/12/27 06:49:54;;;;;;;;;;;;;;;;;;5072865;28;19928;-50
2022/12/27 06:52:22;;;;;;;;;;;;;;;;;;5072919;28;19931;-53
2022/12/27 06:54:49;;;;;;;;;;;;;;;;;;5091769;22;19925;-79
2022/12/27 06:57:16;;;;;;;;;;;;;;;;;;5075779;28;20031;-79
2022/12/27 06:59:42;;;;;;;;;;;;;;;;;;5076065;28;20339;-79
2022/12/27 07:02:09;;;;;;;;;;;;;;;;;;5075267;28;20354;-78
2022/12/27 07:04:35;;;;;;;;;;;;;;;;;;5068715;28;19964;-80
2022/12/27 07:07:02;;;;;;;;;;;;;;;;;;5056118;28;19986;-79
2022/12/27 07:09:28;;;;;;;;;;;;;;;;;;5055836;28;19931;-78
2022/12/27 07:11:56;;;;;;;;;;;;;;;;;;5054995;28;20024;-79
2022/12/27 07:14:22;;;;;;;;;;;;;;;;;;5055035;28;19979;-80
2022/12/27 07:16:49;;;;;;;;;;;;;;;;;;5055417;28;19956;-79
2022/12/27 07:19:15;;;;;;;;;;;;;;;;;;5055191;28;20000;-79
2022/12/27 07:21:42;;;;;;;;;;;;;;;;;;5055117;28;20016;-79
2022/12/27 07:24:09;;;;;;;;;;;;;;;;;;5055525;28;20298;-78
2022/12/27 07:26:35;;;;;;;;;;;;;;;;;;5055360;28;20379;-78
2022/12/27 07:29:03;;;;;;;;;;;;;;;;;;5055544;28;19975;-79
2022/12/27 07:31:31;;;;;;;;;;;;;;;;;;5055136;28;19960;-79
2022/12/27 07:33:57;;;;;;;;;;;;;;;;;;5054853;28;19954;-80
2022/12/27 07:36:25;;;;;;;;;;;;;;;;;;5054761;28;20040;-79
2022/12/27 07:38:52;;;;;;;;;;;;;;;;;;5054237;28;20012;-80
2022/12/27 07:41:18;;;;;;;;;;;;;;;;;;5054555;28;19951;-79
2022/12/27 07:43:45;;;;;;;;;;;;;;;;;;5054405;28;20410;-80
2022/12/27 07:46:14;;;;;;;;;;;;;;;;;;5057337;28;19992;-79
2022/12/27 07:48:41;;;;;;;;;;;;;;;;;;5061158;28;19984;-78
2022/12/27 07:51:07;;;;;;;;;;;;;;;;;;5066193;28;19932;-77
2022/12/27 07:53:34;;;;;;;;;;;;;;;;;;5056059;28;20486;-78
2022/12/27 07:56:05;;;;;;;;;;;;;;;;;;5055907;28;19925;-79
2022/12/27 07:58:35;;;;;;;;;;;;;;;;;;5056714;28;19979;-79
2022/12/27 08:01:02;;;;;;;;;;;;;;;;;;5056723;28;19979;-79
2022/12/27 08:03:30;;;;;;;;;;;;;;;;;;5054974;28;19927;-79
2022/12/27 08:05:57;;;;;;;;;;;;;;;;;;5073767;28;19963;-78
2022/12/27 08:08:24;;;;;;;;;;;;;;;;;;5074760;28;20011;-80
2022/12/27 08:10:51;;;;;;;;;;;;;;;;;;5074540;28;19925;-79
2022/12/27 08:13:17;;;;;;;;;;;;;;;;;;5073960;28;20023;-79
2022/12/27 08:15:44;;;;;;;;;;;;;;;;;;5076182;28;19928;-79
2022/12/27 08:18:10;;;;;;;;;;;;;;;;;;5075132;28;19931;-79
2022/12/27 08:20:38;;;;;;;;;;;;;;;;;;5074218;28;20015;-78
2022/12/27 08:23:04;;;;;;;;;;;;;;;;;;5078723;28;20553;-80
2022/12/27 08:25:31;;;;;;;;;;;;;;;;;;5078555;28;20300;-79
2022/12/27 08:28:02;;;;;;;;;;;;;;;;;;5078981;28;19924;-79
2022/12/27 08:30:28;;;;;;;;;;;;;;;;;;5078826;28;20016;-79
2022/12/27 08:32:55;;;;;;;;;;;;;;;;;;5078535;28;19924;-80
2022/12/27 08:35:22;;;;;;;;;;;;;;;;;;5078647;28;20349;-80
2022/12/27 08:37:49;;;;;;;;;;;;;;;;;;5078520;28;20003;-78
2022/12/27 08:40:16;;;;;;;;;;;;;;;;;;5078498;28;20073;-79
2022/12/27 08:42:42;;;;;;;;;;;;;;;;;;5078036;28;20007;-79
2022/12/27 08:45:09;;;;;;;;;;;;;;;;;;5078361;28;19971;-79
2022/12/27 08:47:36;;;;;;;;;;;;;;;;;;5077973;28;20047;-79
2022/12/27 08:50:02;;;;;;;;;;;;;;;;;;5077279;28;19977;-79
2022/12/27 08:52:29;;;;;;;;;;;;;;;;;;5076631;28;19925;-79
2022/12/27 08:54:56;;;;;;;;;;;;;;;;;;5077545;28;19964;-79
2022/12/27 08:57:23;;;;;;;;;;;;;;;;;;5078416;28;20023;-79
2022/12/27 08:59:49;;;;;;;;;;;;;;;;;;5078951;28;20011;-81
2022/12/27 09:02:16;;;;;;;;;;;;;;;;;;5077822;28;20286;-78
2022/12/27 09:04:42;;;;;;;;;;;;;;;;;;5070275;28;19964;-79
2022/12/27 09:07:09;;;;;;;;;;;;;;;;;;5058325;28;20015;-78
2022/12/27 09:09:35;;;;;;;;;;;;;;;;;;5059172;28;20011;-78
2022/12/27 09:12:04;;;;;;;;;;;;;;;;;;5058636;28;19979;-80
2022/12/27 09:14:30;;;;;;;;;;;;;;;;;;5057683;28;20395;-79
2022/12/27 09:16:57;;;;;;;;;;;;;;;;;;5057900;28;19925;-78
2022/12/27 09:19:23;;;;;;;;;;;;;;;;;;5057949;28;19931;-79
2022/12/27 09:21:49;;;;;;;;;;;;;;;;;;5058232;28;19925;-79
2022/12/27 09:24:16;;;;;;;;;;;;;;;;;;5057589;28;20000;-79
2022/12/27 09:26:42;;;;;;;;;;;;;;;;;;5057447;28;20011;-78
2022/12/27 09:29:11;;;;;;;;;;;;;;;;;;5058590;28;19925;-78
2022/12/27 09:31:37;;;;;;;;;;;;;;;;;;5058812;28;20166;-80
2022/12/27 09:34:04;;;;;;;;;;;;;;;;;;5055966;28;20024;-78
2022/12/27 09:36:30;;;;;;;;;;;;;;;;;;5056877;28;19975;-79
2022/12/27 09:38:57;;;;;;;;;;;;;;;;;;5056338;28;19979;-79
2022/12/27 09:41:34;;;;;;;;;;;;;;;;;;5056959;28;20037;-79
2022/12/27 09:44:02;;;;;;;;;;;;;;;;;;5056725;28;19965;-79
2022/12/27 09:46:33;;;;;;;;;;;;;;;;;;5057906;28;19925;-79
2022/12/27 09:49:00;;;;;;;;;;;;;;;;;;5057382;28;19974;-79
2022/12/27 09:51:30;;;;;;;;;;;;;;;;;;5058488;28;19952;-79
2022/12/27 09:53:58;;;;;;;;;;;;;;;;;;5060394;28;20284;-80
2022/12/27 09:56:27;;;;;;;;;;;;;;;;;;5058191;28;19979;-77
2022/12/27 09:58:54;;;;;;;;;;;;;;;;;;5057977;28;20031;-79
2022/12/27 10:01:23;;;;;;;;;;;;;;;;;;5057807;28;19968;-79
2022/12/27 10:03:51;;;;;;;;;;;;;;;;;;5057419;28;20007;-78
2022/12/27 10:06:26;;;;;;;;;;;;;;;;;;5057573;28;20028;-79
2022/12/27 10:08:57;;;;;;;;;;;;;;;;;;5057695;28;20418;-79
2022/12/27 10:11:36;;;;;;;;;;;;;;;;;;5057845;28;20015;-79
2022/12/27 10:14:05;;;;;;;;;;;;;;;;;;5057456;28;19968;-79
2022/12/27 10:16:35;;;;;;;;;;;;;;;;;;5059870;28;19925;-79
2022/12/27 10:19:12;;;;;;;;;;;;;;;;;;5058022;28;19956;-79
2022/12/27 10:21:41;;;;;;;;;;;;;;;;;;5056937;28;19979;-79
2022/12/27 10:24:16;;;;;;;;;;;;;;;;;;5056600;28;20004;-80
2022/12/27 10:26:42;;;;;;;;;;;;;;;;;;5057221;28;19982;-81
2022/12/27 10:29:13;;;;;;;;;;;;;;;;;;5059716;28;19924;-80
2022/12/27 10:31:42;;;;;;;;;;;;;;;;;;5056577;28;19925;-78
2022/12/27 10:34:10;;;;;;;;;;;;;;;;;;5072911;28;19925;-76
2022/12/27 10:36:37;;;;;;;;;;;;;;;;;;5074781;28;20391;-77
2022/12/27 10:39:03;;;;;;;;;;;;;;;;;;5076917;28;20011;-78
2022/12/27 10:41:34;;;;;;;;;;;;;;;;;;5081317;28;19987;-77
2022/12/27 10:44:01;;;;;;;;;;;;;;;;;;5084330;28;19924;-79
2022/12/27 10:46:29;;;;;;;;;;;;;;;;;;5079827;28;20039;-79
2022/12/27 10:48:57;;;;;;;;;;;;;;;;;;5077085;28;19979;-80
2022/12/27 10:51:25;;;;;;;;;;;;;;;;;;5076942;28;19963;-80
2022/12/27 10:53:58;;;;;;;;;;;;;;;;;;5089227;28;19924;-79
2022/12/27 10:56:26;;;;;;;;;;;;;;;;;;5084059;28;20430;-79
2022/12/27 10:58:54;;;;;;;;;;;;;;;;;;5076978;28;19925;-80
2022/12/27 11:01:22;;;;;;;;;;;;;;;;;;5077671;28;19924;-79
2022/12/27 11:03:49;;;;;;;;;;;;;;;;;;5076499;28;19924;-79
2022/12/27 11:06:26;;;;;;;;;;;;;;;;;;5076508;28;19983;-78
2022/12/27 11:08:53;;;;;;;;;;;;;;;;;;5075735;28;19931;-79
2022/12/27 11:11:21;;;;;;;;;;;;;;;;;;5075866;28;19978;-79
2022/12/27 11:13:47;;;;;;;;;;;;;;;;;;5073982;28;20016;-79
2022/12/27 11:16:19;;;;;;;;;;;;;;;;;;5075450;28;19931;-78
2022/12/27 11:18:48;;;;;;;;;;;;;;;;;;5075206;28;20534;-79
2022/12/27 11:21:14;;;;;;;;;;;;;;;;;;5075093;28;19979;-80
2022/12/27 11:23:44;;;;;;;;;;;;;;;;;;5075233;28;19971;-79
2022/12/27 11:26:16;;;;;;;;;;;;;;;;;;5074789;28;19983;-78
2022/12/27 11:28:44;;;;;;;;;;;;;;;;;;5074923;28;20019;-79
2022/12/27 11:31:12;;;;;;;;;;;;;;;;;;5075604;28;19964;-78
2022/12/27 11:33:40;;;;;;;;;;;;;;;;;;5075514;28;20015;-79
2022/12/27 11:36:08;;;;;;;;;;;;;;;;;;5075981;28;19928;-80
2022/12/27 11:38:36;;;;;;;;;;;;;;;;;;5076052;28;20007;-79
2022/12/27 11:41:07;;;;;;;;;;;;;;;;;;5076205;28;19931;-80
2022/12/27 11:43:36;;;;;;;;;;;;;;;;;;5076091;28;19974;-80
2022/12/27 11:46:05;;;;;;;;;;;;;;;;;;5076095;28;19959;-80
2022/12/27 11:48:34;;;;;;;;;;;;;;;;;;5076161;28;19924;-79
2022/12/27 11:51:07;;;;;;;;;;;;;;;;;;5076308;28;20007;-79
2022/12/27 11:53:43;;;;;;;;;;;;;;;;;;5076408;28;19932;-79
2022/12/27 11:56:16;;;;;;;;;;;;;;;;;;5079776;28;20016;-78
2022/12/27 11:59:02;;;;;;;;;;;;;;;;;;5083941;28;19925;-78
2022/12/27 12:01:46;;;;;;;;;;;;;;;;;;5083663;28;19970;-78
2022/12/27 12:04:31;;;;;;;;;;;;;;;;;;5079417;28;20437;-79
2022/12/27 12:07:04;;;;;;;;;;;;;;;;;;5046765;28;19992;-80
2022/12/27 12:09:38;;;;;;;;;;;;;;;;;;5059742;28;19964;-79
2022/12/27 12:12:22;;;;;;;;;;;;;;;;;;5060771;28;19975;-80
2022/12/27 12:15:03;;;;;;;;;;;;;;;;;;5058405;28;20016;-79
2022/12/27 12:17:51;;;;;;;;;;;;;;;;;;5014878;28;19925;-79
2022/12/27 12:20:42;;;;;;;;;;;;;;;;;;5060446;28;20024;-80
2022/12/27 12:23:11;;;;;;;;;;;;;;;;;;5045612;28;19956;-79
2022/12/27 12:25:56;;;;;;;;;;;;;;;;;;5059942;28;20424;-80
2022/12/27 12:28:37;;;;;;;;;;;;;;;;;;5060186;28;19975;-80
2022/12/27 12:31:09;;;;;;;;;;;;;;;;;;5060175;28;19953;-80
2022/12/27 12:33:41;;;;;;;;;;;;;;;;;;5059218;28;19990;-80
2022/12/27 12:36:19;;;;;;;;;;;;;;;;;;5058648;28;20019;-78
2022/12/27 12:38:48;;;;;;;;;;;;;;;;;;5057958;28;19975;-79
2022/12/27 12:41:27;;;;;;;;;;;;;;;;;;5058190;28;20012;-78
2022/12/27 12:44:26;;;;;;;;;;;;;;;;;;5057993;28;19979;-78
2022/12/27 12:46:57;;;;;;;;;;;;;;;;;;4976856;28;19930;-78
2022/12/27 12:49:34;;;;;;;;;;;;;;;;;;4977496;28;19980;-80
2022/12/27 12:52:16;;;;;;;;;;;;;;;;;;5021144;28;19983;-79
2022/12/27 12:57:15;;;;;;;;;;;;;;;;;;5090900;28;19931;-76
2022/12/27 12:59:54;;;;;;;;;;;;;;;;;;5095428;28;19932;-76
2022/12/27 13:02:35;;;;;;;;;;;;;;;;;;5095396;28;20331;-76
2022/12/27 13:05:11;;;;;;;;;;;;;;;;;;5084349;28;19968;-76
2022/12/27 13:07:46;;;;;;;;;;;;;;;;;;5074317;28;19932;-76
2022/12/27 13:10:20;;;;;;;;;;;;;;;;;;5074861;28;19924;-76
2022/12/27 13:12:50;;;;;;;;;;;;;;;;;;5074656;28;20367;-74
2022/12/27 13:15:28;;;;;;;;;;;;;;;;;;5074652;28;19932;-74
2022/12/27 13:18:00;;;;;;;;;;;;;;;;;;5074685;28;19979;-75
2022/12/27 13:20:40;;;;;;;;;;;;;;;;;;5074737;28;19931;-74
2022/12/27 13:23:13;;;;;;;;;;;;;;;;;;5074497;28;19924;-75
2022/12/27 13:25:44;;;;;;;;;;;;;;;;;;5074456;28;19968;-75
2022/12/27 13:28:22;;;;;;;;;;;;;;;;;;5074488;28;19946;-75
2022/12/27 13:30:53;;;;;;;;;;;;;;;;;;5074656;28;19972;-75
2022/12/27 13:33:26;;;;;;;;;;;;;;;;;;5074506;28;20024;-74
2022/12/27 13:35:58;;;;;;;;;;;;;;;;;;5074308;28;19924;-75
2022/12/27 13:38:30;;;;;;;;;;;;;;;;;;5074290;28;19964;-75
2022/12/27 13:41:11;;;;;;;;;;;;;;;;;;5074205;28;19929;-75
2022/12/27 13:43:49;;;;;;;;;;;;;;;;;;5074175;28;19980;-75
2022/12/27 13:46:25;;;;;;;;;;;;;;;;;;5074309;28;19928;-75
2022/12/27 13:49:00;;;;;;;;;;;;;;;;;;5074301;28;19931;-75
2022/12/27 13:51:43;;;;;;;;;;;;;;;;;;5074279;28;19997;-75
2022/12/27 13:54:36;;;;;;;;;;;;;;;;;;5073852;28;19931;-75
2022/12/27 13:57:10;;;;;;;;;;;;;;;;;;5073604;28;20361;-75
2022/12/27 13:59:56;;;;;;;;;;;;;;;;;;5073891;28;20446;-75
2022/12/27 14:02:35;;;;;;;;;;;;;;;;;;5073843;28;20011;-75
2022/12/27 14:05:19;;;;;;;;;;;;;;;;;;5073726;28;19963;-75
2022/12/27 14:07:52;;;;;;;;;;;;;;;;;;5073634;28;20011;-75
2022/12/27 14:10:35;;;;;;;;;;;;;;;;;;5073792;28;20290;-76
2022/12/27 14:13:02;;;;;;;;;;;;;;;;;;5073575;28;19924;-76
2022/12/27 14:15:38;;;;;;;;;;;;;;;;;;5073560;28;19930;-75
2022/12/27 14:18:19;;;;;;;;;;;;;;;;;;5074107;28;19964;-75
2022/12/27 14:20:53;;;;;;;;;;;;;;;;;;5071094;28;20015;-75
2022/12/27 14:23:26;;;;;;;;;;;;;;;;;;5073636;28;20331;-76
2022/12/27 14:26:06;;;;;;;;;;;;;;;;;;5074332;28;20007;-74
2022/12/27 14:28:43;;;;;;;;;;;;;;;;;;5073965;28;19925;-75
2022/12/27 14:31:30;;;;;;;;;;;;;;;;;;5073496;28;20011;-75
2022/12/27 14:34:09;;;;;;;;;;;;;;;;;;5039080;28;20411;-75
2022/12/27 14:37:04;;;;;;;;;;;;;;;;;;5073342;28;19925;-74
2022/12/27 14:39:48;;;;;;;;;;;;;;;;;;5073627;28;19964;-75
2022/12/27 14:42:48;;;;;;;;;;;;;;;;;;5073630;28;19952;-75
2022/12/27 14:45:33;;;;;;;;;;;;;;;;;;5073422;28;19924;-74
2022/12/27 14:48:03;;;;;;;;;;;;;;;;;;5073451;28;19925;-75
2022/12/27 14:50:47;;;;;;;;;;;;;;;;;;5073197;28;19967;-75
2022/12/27 14:53:32;;;;;;;;;;;;;;;;;;5072716;28;19967;-75
2022/12/27 14:56:07;;;;;;;;;;;;;;;;;;5072821;28;19928;-75
2022/12/27 14:58:45;;;;;;;;;;;;;;;;;;5073081;28;19931;-75
2022/12/27 15:01:17;;;;;;;;;;;;;;;;;;5073184;28;19931;-74
2022/12/27 15:03:49;;;;;;;;;;;;;;;;;;5072690;28;20011;-75
2022/12/27 15:06:19;;;;;;;;;;;;;;;;;;5072348;28;20374;-75
2022/12/27 15:08:52;;;;;;;;;;;;;;;;;;5072556;28;20145;-75
2022/12/27 15:11:31;;;;;;;;;;;;;;;;;;5072531;28;19924;-75
2022/12/27 15:14:05;;;;;;;;;;;;;;;;;;5072093;28;20363;-75
2022/12/27 15:16:39;;;;;;;;;;;;;;;;;;5071965;28;20337;-75
2022/12/27 15:19:13;;;;;;;;;;;;;;;;;;5072242;28;20295;-75
2022/12/27 15:21:45;;;;;;;;;;;;;;;;;;5072077;28;20007;-75
2022/12/27 15:24:20;;;;;;;;;;;;;;;;;;5072128;28;19924;-75
2022/12/27 15:26:51;;;;;;;;;;;;;;;;;;5071943;28;19982;-75
2022/12/27 15:29:22;;;;;;;;;;;;;;;;;;5072216;28;19931;-75
2022/12/27 15:31:56;;;;;;;;;;;;;;;;;;5071904;28;19931;-75
2022/12/27 15:34:33;;;;;;;;;;;;;;;;;;5072129;28;19924;-75
2022/12/27 15:36:59;;;;;;;;;;;;;;;;;;5071957;28;20339;-75
2022/12/27 15:39:48;;;;;;;;;;;;;;;;;;5072531;28;19960;-76
2022/12/27 15:42:35;;;;;;;;;;;;;;;;;;5071823;28;20032;-75
2022/12/27 15:45:07;;;;;;;;;;;;;;;;;;5065172;28;20366;-75
2022/12/27 15:47:55;;;;;;;;;;;;;;;;;;5071968;28;20035;-75
2022/12/27 15:50:31;;;;;;;;;;;;;;;;;;5072432;28;19924;-76
2022/12/27 15:53:06;;;;;;;;;;;;;;;;;;5071724;28;19983;-75
2022/12/27 15:55:42;;;;;;;;;;;;;;;;;;5072010;28;19999;-75
2022/12/27 15:58:14;;;;;;;;;;;;;;;;;;5071929;28;19924;-75
2022/12/27 16:00:42;;;;;;;;;;;;;;;;;;5072248;28;19924;-75
2022/12/27 16:03:23;;;;;;;;;;;;;;;;;;5071602;28;19924;-75
2022/12/27 16:05:51;;;;;;;;;;;;;;;;;;5071349;28;20012;-75
2022/12/27 16:08:24;;;;;;;;;;;;;;;;;;5072178;28;19982;-75
2022/12/27 16:10:51;;;;;;;;;;;;;;;;;;5072039;28;19971;-76
2022/12/27 16:13:32;;;;;;;;;;;;;;;;;;5071660;28;19987;-75
2022/12/27 16:16:00;;;;;;;;;;;;;;;;;;5069341;28;19925;-75
2022/12/27 16:18:54;;;;;;;;;;;;;;;;;;5071741;28;20411;-75
2022/12/27 16:21:22;;;;;;;;;;;;;;;;;;5071801;28;19970;-75
2022/12/27 16:23:50;;;;;;;;;;;;;;;;;;5071863;28;19929;-75
2022/12/27 16:26:18;;;;;;;;;;;;;;;;;;5071658;28;20011;-75
2022/12/27 16:28:51;;;;;;;;;;;;;;;;;;5071752;28;19928;-75
2022/12/27 16:31:22;;;;;;;;;;;;;;;;;;5071787;28;20679;-75
2022/12/27 16:33:48;;;;;;;;;;;;;;;;;;5071601;28;19968;-75
2022/12/27 16:36:23;;;;;;;;;;;;;;;;;;5071858;28;19963;-75
2022/12/27 16:38:56;;;;;;;;;;;;;;;;;;5072064;28;19924;-75
2022/12/27 16:41:35;;;;;;;;;;;;;;;;;;5071736;28;20389;-75
2022/12/27 16:44:12;;;;;;;;;;;;;;;;;;5074573;28;20339;-75
2022/12/27 16:46:48;;;;;;;;;;;;;;;;;;5075528;28;20015;-75
2022/12/27 16:49:31;;;;;;;;;;;;;;;;;;5075782;28;19975;-75
2022/12/27 16:52:06;;;;;;;;;;;;;;;;;;5075494;28;19928;-75
2022/12/27 16:54:43;;;;;;;;;;;;;;;;;;5074987;28;20590;-75
2022/12/27 16:57:39;;;;;;;;;;;;;;;;;;5075405;28;19924;-75
2022/12/27 17:00:22;;;;;;;;;;;;;;;;;;5075354;28;19932;-75
2022/12/27 17:02:50;;;;;;;;;;;;;;;;;;5074832;28;20318;-75
2022/12/27 17:05:33;;;;;;;;;;;;;;;;;;5075411;28;19931;-75
2022/12/27 17:08:13;;;;;;;;;;;;;;;;;;5075371;28;19928;-76
2022/12/27 17:10:43;;;;;;;;;;;;;;;;;;5075432;28;19982;-75
2022/12/27 17:13:13;;;;;;;;;;;;;;;;;;5075105;28;20006;-75
2022/12/27 17:15:42;;;;;;;;;;;;;;;;;;5075586;28;19924;-75
2022/12/27 17:18:20;;;;;;;;;;;;;;;;;;5074920;28;19934;-75
2022/12/27 17:20:51;;;;;;;;;;;;;;;;;;5075323;28;19965;-75
2022/12/27 17:23:18;;;;;;;;;;;;;;;;;;5075084;28;19928;-75
2022/12/27 17:25:51;;;;;;;;;;;;;;;;;;5074866;28;19970;-75
2022/12/27 17:28:22;;;;;;;;;;;;;;;;;;5074558;28;19928;-75
2022/12/27 17:30:53;;;;;;;;;;;;;;;;;;5074558;28;19960;-75
2022/12/27 17:33:33;;;;;;;;;;;;;;;;;;5073979;28;19924;-75
2022/12/27 17:36:07;;;;;;;;;;;;;;;;;;5074518;28;19928;-75
2022/12/27 17:38:40;;;;;;;;;;;;;;;;;;5074612;28;19925;-75
2022/12/27 17:41:12;;;;;;;;;;;;;;;;;;5074720;28;20401;-75
2022/12/27 17:46:31;;;;;;;;;;;;;;;;;;5074550;28;19940;-75
2022/12/27 17:48:59;;;;;;;;;;;;;;;;;;5074371;28;19983;-75
2022/12/27 17:51:26;;;;;;;;;;;;;;;;;;5074337;28;20015;-75
2022/12/27 17:59:28;;;;;;;;;;;;;;;;;;5074210;28;20402;-75
2022/12/27 18:01:57;;;;;;;;;;;;;;;;;;5074046;28;19925;-75
2022/12/27 18:04:26;;;;;;;;;;;;;;;;;;5079144;28;19930;-75
2022/12/27 18:06:54;;;;;;;;;;;;;;;;;;5094112;28;20362;-74
2022/12/27 18:09:26;;;;;;;;;;;;;;;;;;5093685;28;19924;-74
2022/12/27 18:11:53;;;;;;;;;;;;;;;;;;5094435;28;19986;-74
2022/12/27 18:14:20;;;;;;;;;;;;;;;;;;5093934;28;19975;-74
2022/12/27 18:16:47;;;;;;;;;;;;;;;;;;5093988;28;19924;-75
2022/12/27 18:19:17;;;;;;;;;;;;;;;;;;5093949;28;19924;-75
2022/12/27 18:21:53;;;;;;;;;;;;;;;;;;5094061;28;19924;-75
2022/12/27 18:24:25;;;;;;;;;;;;;;;;;;5093358;28;20026;-75
2022/12/27 18:26:59;;;;;;;;;;;;;;;;;;5093592;28;20018;-74
2022/12/27 18:29:25;;;;;;;;;;;;;;;;;;5093639;28;19967;-75
2022/12/27 18:31:54;;;;;;;;;;;;;;;;;;5093805;28;20011;-75
2022/12/27 18:34:23;;;;;;;;;;;;;;;;;;5093102;28;20335;-75
2022/12/27 18:36:57;;;;;;;;;;;;;;;;;;5093548;28;19928;-75
2022/12/27 18:39:27;;;;;;;;;;;;;;;;;;5093685;28;20010;-75
2022/12/27 18:41:54;;;;;;;;;;;;;;;;;;5093461;28;19924;-74
2022/12/27 18:44:21;;;;;;;;;;;;;;;;;;5092951;28;20352;-75
2022/12/27 18:46:48;;;;;;;;;;;;;;;;;;5093075;28;19924;-75
2022/12/27 18:49:22;;;;;;;;;;;;;;;;;;5093216;28;19924;-75
2022/12/27 18:51:48;;;;;;;;;;;;;;;;;;5093586;28;20009;-75
2022/12/27 18:54:22;;;;;;;;;;;;;;;;;;5093216;28;19924;-75
2022/12/27 18:56:51;;;;;;;;;;;;;;;;;;5093638;28;20026;-75
2022/12/27 18:59:20;;;;;;;;;;;;;;;;;;5093038;28;19970;-76
2022/12/27 19:01:47;;;;;;;;;;;;;;;;;;5093716;28;19924;-76